createdAt,value
2022-09-06T00:02:31.538Z,64.46
2022-09-06T00:04:58.797Z,65.73
2022-09-06T00:07:25.987Z,66.40
2022-09-06T00:09:53.166Z,66.26
2022-09-06T00:12:20.510Z,66.03
2022-09-06T00:14:47.670Z,66.06
2022-09-06T00:17:14.907Z,65.79
2022-09-06T00:19:42.078Z,65.27
2022-09-06T00:22:09.394Z,65.39
2022-09-06T00:24:37.316Z,66.01
2022-09-06T00:27:05.110Z,65.98
2022-09-06T00:29:32.329Z,65.54
2022-09-06T00:32:00.101Z,65.35
2022-09-06T00:34:27.887Z,65.45
2022-09-06T00:36:55.147Z,65.84
2022-09-06T00:39:22.321Z,65.83
2022-09-06T00:41:49.517Z,65.58
2022-09-06T00:44:16.698Z,65.81
2022-09-06T00:46:46.730Z,65.89
2022-09-06T00:49:34.154Z,65.71
2022-09-06T00:52:03.381Z,66.01
2022-09-06T00:54:31.103Z,66.15
2022-09-06T00:56:58.612Z,66.09
2022-09-06T00:59:27.169Z,66.64
2022-09-06T01:01:54.452Z,66.78
2022-09-06T01:04:21.813Z,67.08
2022-09-06T01:06:49.315Z,66.95
2022-09-06T01:09:16.488Z,67.30
2022-09-06T01:11:46.718Z,67.61
2022-09-06T01:14:19.936Z,67.73
2022-09-06T01:17:11.295Z,68.00
2022-09-06T01:19:38.478Z,68.04
2022-09-06T01:22:38.224Z,68.54
2022-09-06T01:25:11.319Z,70.16
2022-09-06T01:27:52.772Z,71.21
2022-09-06T01:30:20.705Z,72.24
2022-09-06T01:32:56.206Z,72.51
2022-09-06T01:35:26.456Z,73.47
2022-09-06T01:37:53.928Z,73.99
2022-09-06T01:40:21.192Z,73.91
2022-09-06T01:42:49.578Z,73.22
2022-09-06T01:45:36.996Z,72.55
2022-09-06T01:48:07.292Z,71.84
2022-09-06T01:50:46.229Z,71.81
2022-09-06T01:53:25.616Z,72.23
2022-09-06T01:56:13.082Z,71.42
2022-09-06T01:58:49.492Z,70.74
2022-09-06T02:01:28.602Z,71.40
2022-09-06T02:04:00.629Z,71.97
2022-09-06T02:06:30.108Z,71.04
2022-09-06T02:09:08.174Z,71.34
2022-09-06T02:11:47.896Z,72.76
2022-09-06T02:14:18.575Z,73.00
2022-09-06T02:16:48.523Z,72.73
2022-09-06T02:19:19.853Z,71.95
2022-09-06T02:21:47.915Z,72.06
2022-09-06T02:24:23.789Z,72.32
2022-09-06T02:26:51.512Z,71.64
2022-09-06T02:29:18.948Z,71.00
2022-09-06T02:31:51.166Z,70.80
2022-09-06T02:34:19.513Z,70.76
2022-09-06T02:36:47.097Z,70.93
2022-09-06T02:39:14.395Z,71.14
2022-09-06T02:41:43.624Z,71.40
2022-09-06T02:44:10.914Z,71.11
2022-09-06T02:46:38.120Z,70.69
2022-09-06T02:49:05.339Z,70.55
2022-09-06T02:51:36.587Z,71.06
2022-09-06T02:54:05.281Z,71.05
2022-09-06T02:56:33.792Z,70.83
2022-09-06T02:59:00.990Z,70.91
2022-09-06T03:01:28.272Z,71.27
2022-09-06T03:03:56.052Z,71.39
2022-09-06T03:06:23.375Z,71.37
2022-09-06T03:08:51.449Z,71.78
2022-09-06T03:11:18.874Z,71.93
2022-09-06T03:13:46.405Z,71.82
2022-09-06T03:16:15.569Z,71.60
2022-09-06T03:18:42.829Z,71.89
2022-09-06T03:21:10.131Z,72.15
2022-09-06T03:23:39.575Z,72.08
2022-09-06T03:26:07.405Z,72.32
2022-09-06T03:28:34.777Z,72.60
2022-09-06T03:31:02.035Z,72.64
2022-09-06T03:33:29.293Z,72.89
2022-09-06T03:35:58.127Z,73.09
2022-09-06T03:38:26.233Z,72.65
2022-09-06T03:40:54.104Z,72.64
2022-09-06T03:43:23.125Z,72.99
2022-09-06T03:45:51.881Z,73.35
2022-09-06T03:48:20.060Z,73.09
2022-09-06T03:50:48.321Z,73.03
2022-09-06T03:53:16.282Z,72.93
2022-09-06T03:55:47.385Z,72.62
2022-09-06T03:58:15.860Z,71.85
2022-09-06T04:00:43.071Z,71.59
2022-09-06T04:03:10.297Z,71.49
2022-09-06T04:05:37.605Z,71.81
2022-09-06T04:08:05.920Z,71.94
2022-09-06T04:10:33.766Z,72.49
2022-09-06T04:13:01.020Z,73.40
2022-09-06T04:15:28.179Z,73.03
2022-09-06T04:17:55.438Z,72.79
2022-09-06T04:20:23.480Z,72.69
2022-09-06T04:22:50.697Z,73.49
2022-09-06T04:25:17.937Z,74.43
2022-09-06T04:27:45.212Z,75.28
2022-09-06T04:30:12.416Z,75.07
2022-09-06T04:32:39.676Z,74.74
2022-09-06T04:35:07.097Z,74.74
2022-09-06T04:37:34.321Z,74.34
2022-09-06T04:40:01.698Z,74.03
2022-09-06T04:42:28.955Z,73.72
2022-09-06T04:44:56.149Z,74.03
2022-09-06T04:47:23.610Z,74.08
2022-09-06T04:49:50.812Z,73.93
2022-09-06T04:52:18.004Z,74.15
2022-09-06T04:54:45.229Z,74.09
2022-09-06T04:57:12.492Z,75.14
2022-09-06T04:59:39.715Z,75.09
2022-09-06T05:02:07.009Z,74.86
2022-09-06T05:04:34.315Z,74.54
2022-09-06T05:07:05.469Z,74.81
2022-09-06T05:09:33.592Z,74.77
2022-09-06T05:12:01.701Z,74.34
2022-09-06T05:14:29.304Z,74.59
2022-09-06T05:16:56.583Z,75.98
2022-09-06T05:19:23.897Z,76.99
2022-09-06T05:21:51.718Z,76.69
2022-09-06T05:24:19.266Z,75.80
2022-09-06T05:26:46.500Z,75.66
2022-09-06T05:29:13.708Z,75.13
2022-09-06T05:31:40.949Z,75.30
2022-09-06T05:34:08.247Z,75.02
2022-09-06T05:36:35.522Z,74.60
2022-09-06T05:39:02.855Z,74.06
2022-09-06T05:41:30.067Z,74.01
2022-09-06T05:43:57.292Z,74.46
2022-09-06T05:46:24.516Z,74.91
2022-09-06T05:48:55.615Z,74.34
2022-09-06T05:51:22.830Z,74.03
2022-09-06T05:53:50.036Z,73.57
2022-09-06T05:56:17.293Z,73.83
2022-09-06T05:58:44.638Z,73.87
2022-09-06T06:01:14.669Z,73.91
2022-09-06T06:03:41.969Z,73.07
2022-09-06T06:06:09.646Z,73.19
2022-09-06T06:08:36.915Z,73.03
2022-09-06T06:11:04.237Z,72.65
2022-09-06T06:13:34.960Z,72.90
2022-09-06T06:16:03.322Z,72.46
2022-09-06T06:18:30.587Z,71.76
2022-09-06T06:21:13.091Z,70.75
2022-09-06T06:23:41.080Z,71.19
2022-09-06T06:26:08.717Z,71.12
2022-09-06T06:28:36.375Z,70.32
2022-09-06T06:31:04.516Z,70.04
2022-09-06T06:33:32.516Z,69.66
2022-09-06T06:36:00.906Z,69.16
2022-09-06T06:38:32.376Z,68.15
2022-09-06T06:41:04.394Z,68.12
2022-09-06T06:43:37.633Z,68.23
2022-09-06T06:46:05.011Z,68.23
2022-09-06T06:48:32.489Z,68.08
2022-09-06T06:50:59.793Z,68.63
2022-09-06T06:53:26.979Z,68.92
2022-09-06T06:55:54.608Z,69.09
2022-09-06T06:58:21.979Z,68.46
2022-09-06T07:00:49.422Z,67.48
2022-09-06T07:03:17.036Z,65.01
2022-09-06T07:08:32.734Z,64.97
2022-09-06T07:10:59.962Z,65.29
2022-09-06T07:13:27.269Z,65.52
2022-09-06T07:16:04.971Z,65.72
2022-09-06T07:18:32.189Z,65.97
2022-09-06T07:26:34.645Z,63.76
2022-09-06T07:29:03.237Z,64.13
2022-09-06T07:34:20.613Z,64.38
2022-09-06T07:36:48.489Z,64.12
2022-09-06T07:39:15.751Z,64.29
2022-09-06T07:41:43.115Z,64.62
2022-09-06T07:44:10.443Z,64.66
2022-09-06T07:46:37.768Z,64.29
2022-09-06T07:49:05.864Z,63.38
2022-09-06T07:51:33.067Z,62.85
2022-09-06T07:54:28.895Z,62.87
2022-09-06T07:56:47.802Z,62.64
2022-09-06T07:59:15.407Z,61.89
2022-09-06T08:01:42.861Z,62.30
2022-09-06T08:04:14.209Z,61.72
2022-09-06T08:09:30.215Z,61.31
2022-09-06T08:11:57.433Z,61.58
2022-09-06T08:14:24.605Z,60.71
2022-09-06T08:16:51.853Z,60.37
2022-09-06T08:19:19.015Z,60.01
2022-09-06T08:21:46.261Z,59.42
2022-09-06T08:24:13.448Z,58.89
2022-09-06T08:26:42.458Z,58.91
2022-09-06T08:29:10.899Z,58.36
2022-09-06T08:31:39.187Z,57.64
2022-09-06T08:34:06.536Z,57.48
2022-09-06T08:36:34.503Z,57.21
2022-09-06T08:39:03.065Z,56.16
2022-09-06T08:41:37.879Z,56.69
2022-09-06T08:46:59.584Z,55.97
2022-09-06T08:49:29.416Z,56.49
2022-09-06T08:52:15.432Z,56.10
2022-09-06T08:54:42.618Z,55.62
2022-09-06T08:57:15.748Z,55.58
2022-09-06T08:59:44.054Z,54.23
2022-09-06T09:02:11.316Z,52.96
2022-09-06T09:04:47.325Z,49.17
2022-09-06T09:07:20.512Z,48.48
2022-09-06T09:09:47.779Z,46.92
2022-09-06T09:12:17.706Z,44.80
2022-09-06T09:14:48.365Z,44.24
2022-09-06T09:17:22.258Z,40.54
2022-09-06T09:19:49.829Z,40.64
2022-09-06T09:22:18.219Z,43.63
2022-09-06T09:24:47.411Z,45.64
2022-09-06T09:27:17.561Z,46.54
2022-09-06T09:32:45.170Z,50.78
2022-09-06T09:35:21.573Z,52.07
2022-09-06T09:37:57.441Z,51.97
2022-09-06T09:40:33.459Z,52.05
2022-09-06T09:43:15.720Z,52.36
2022-09-06T09:45:43.593Z,52.04
2022-09-06T09:48:16.756Z,52.36
2022-09-06T09:50:43.952Z,52.53
2022-09-06T09:53:12.433Z,52.32
2022-09-06T09:55:40.185Z,51.96
2022-09-06T09:58:08.893Z,52.75
2022-09-06T10:00:39.946Z,53.03
2022-09-06T10:03:13.163Z,53.42
2022-09-06T10:05:41.351Z,53.40
2022-09-06T10:08:11.129Z,52.31
2022-09-06T10:10:43.149Z,52.59
2022-09-06T10:13:29.850Z,52.17
2022-09-06T10:15:58.889Z,52.42
2022-09-06T10:18:29.994Z,52.02
2022-09-06T10:21:02.991Z,51.52
2022-09-06T10:26:28.883Z,52.42
2022-09-06T10:29:02.338Z,52.68
2022-09-06T10:31:29.491Z,52.85
2022-09-06T10:34:02.812Z,51.97
2022-09-06T10:36:34.514Z,51.39
2022-09-06T10:39:18.182Z,52.06
2022-09-06T10:41:54.604Z,52.41
2022-09-06T10:44:21.757Z,52.53
2022-09-06T10:46:51.444Z,52.62
2022-09-06T10:49:19.312Z,52.14
2022-09-06T10:51:52.132Z,52.25
2022-09-06T10:54:23.461Z,51.06
2022-09-06T10:56:59.277Z,51.13
2022-09-06T10:59:37.397Z,51.48
2022-09-06T11:02:05.774Z,51.17
2022-09-06T11:07:29.143Z,51.29
2022-09-06T11:10:19.340Z,50.75
2022-09-06T11:12:49.533Z,49.94
2022-09-06T11:15:18.047Z,47.81
2022-09-06T11:17:52.316Z,48.66
2022-09-06T11:20:48.565Z,49.55
2022-09-06T11:23:18.812Z,48.77
2022-09-06T11:25:51.777Z,48.62
2022-09-06T11:28:30.147Z,48.14
2022-09-06T11:30:58.030Z,48.48
2022-09-06T11:33:30.448Z,48.44
2022-09-06T11:36:16.071Z,47.36
2022-09-06T11:38:43.323Z,47.69
2022-09-06T11:41:17.706Z,46.81
2022-09-06T11:43:51.890Z,47.29
2022-09-06T11:46:34.578Z,47.29
2022-09-06T11:49:06.261Z,47.04
2022-09-06T11:51:43.592Z,47.49
2022-09-06T11:54:16.904Z,47.79
2022-09-06T11:56:46.859Z,47.42
2022-09-06T11:59:16.898Z,47.01
2022-09-06T12:01:56.017Z,47.13
2022-09-06T12:04:23.749Z,47.05
2022-09-06T12:07:10.974Z,47.53
2022-09-06T12:09:42.622Z,47.12
2022-09-06T12:12:16.186Z,47.19
2022-09-06T12:14:46.869Z,47.56
2022-09-06T12:17:14.172Z,47.56
2022-09-06T12:19:53.560Z,47.87
2022-09-06T12:22:26.627Z,47.80
2022-09-06T12:24:56.064Z,47.50
2022-09-06T12:27:25.007Z,47.10
2022-09-06T12:30:04.373Z,46.71
2022-09-06T12:32:36.969Z,47.69
2022-09-06T12:37:57.468Z,46.48
2022-09-06T12:40:25.684Z,46.88
2022-09-06T12:42:53.495Z,46.93
2022-09-06T12:45:26.552Z,46.03
2022-09-06T12:48:11.671Z,46.23
2022-09-06T12:50:39.332Z,46.63
2022-09-06T12:53:26.652Z,46.13
2022-09-06T12:56:07.528Z,46.54
2022-09-06T12:58:35.656Z,46.36
2022-09-06T13:01:12.777Z,45.75
2022-09-06T13:04:06.346Z,45.97
2022-09-06T13:06:37.384Z,45.71
2022-09-06T13:09:05.253Z,45.76
2022-09-06T13:11:34.507Z,44.84
2022-09-06T13:14:02.562Z,45.45
2022-09-06T13:16:58.263Z,45.68
2022-09-06T13:19:30.395Z,45.02
2022-09-06T13:21:58.518Z,45.74
2022-09-06T13:24:25.677Z,46.24
2022-09-06T13:26:53.311Z,46.43
2022-09-06T13:29:25.140Z,46.04
2022-09-06T13:31:54.544Z,46.24
2022-09-06T13:34:23.485Z,46.31
2022-09-06T13:36:55.288Z,45.32
2022-09-06T13:39:37.407Z,45.01
2022-09-06T13:42:23.484Z,43.98
2022-09-06T13:44:53.557Z,43.48
2022-09-06T13:47:20.775Z,43.03
2022-09-06T13:49:48.348Z,43.15
2022-09-06T13:52:15.605Z,43.15
2022-09-06T13:54:42.861Z,43.30
2022-09-06T13:57:10.090Z,43.43
2022-09-06T13:59:37.253Z,44.22
2022-09-06T14:02:09.346Z,43.84
2022-09-06T14:04:36.999Z,42.82
2022-09-06T14:07:05.105Z,42.98
2022-09-06T14:09:32.674Z,44.07
2022-09-06T14:12:00.730Z,44.42
2022-09-06T14:14:27.961Z,43.98
2022-09-06T14:16:55.435Z,44.07
2022-09-06T14:19:23.254Z,44.44
2022-09-06T14:21:50.483Z,44.88
2022-09-06T14:24:17.802Z,44.88
2022-09-06T14:26:45.018Z,45.54
2022-09-06T14:29:12.283Z,45.41
2022-09-06T14:31:39.776Z,45.38
2022-09-06T14:34:07.104Z,45.33
2022-09-06T14:36:34.657Z,44.95
2022-09-06T14:39:02.121Z,44.72
2022-09-06T14:41:29.334Z,44.49
2022-09-06T14:43:57.750Z,44.37
2022-09-06T14:46:26.747Z,44.69
2022-09-06T14:48:58.349Z,44.73
2022-09-06T14:51:26.204Z,44.27
2022-09-06T14:53:54.739Z,43.88
2022-09-06T14:56:22.974Z,43.65
2022-09-06T14:58:50.451Z,44.03
2022-09-06T15:01:19.525Z,44.35
2022-09-06T15:03:48.616Z,44.55
2022-09-06T15:06:16.368Z,44.87
2022-09-06T15:08:43.728Z,44.46
2022-09-06T15:11:12.235Z,42.44
2022-09-06T15:13:42.796Z,43.37
2022-09-06T15:16:10.773Z,43.20
2022-09-06T15:18:38.069Z,41.49
2022-09-06T15:21:11.937Z,42.44
2022-09-06T15:23:39.906Z,43.59
2022-09-06T15:26:08.344Z,44.27
2022-09-06T15:28:36.956Z,43.54
2022-09-06T15:31:04.762Z,43.62
2022-09-06T15:33:32.426Z,43.65
2022-09-06T15:36:06.224Z,43.81
2022-09-06T15:38:34.140Z,43.92
2022-09-06T15:41:07.966Z,43.60
2022-09-06T15:43:36.605Z,43.69
2022-09-06T15:46:04.610Z,43.43
2022-09-06T15:48:39.739Z,42.43
2022-09-06T15:51:07.022Z,42.67
2022-09-06T15:53:34.265Z,42.41
2022-09-06T15:56:02.652Z,42.87
2022-09-06T15:58:30.353Z,43.19
2022-09-06T16:01:01.453Z,43.00
2022-09-06T16:03:49.241Z,43.21
2022-09-06T16:08:55.429Z,42.88
2022-09-06T16:11:22.597Z,43.14
2022-09-06T16:13:49.844Z,43.35
2022-09-06T16:16:17.562Z,43.19
2022-09-06T16:18:47.283Z,43.48
2022-09-06T16:21:16.676Z,44.09
2022-09-06T16:23:49.753Z,43.98
2022-09-06T16:26:21.121Z,44.00
2022-09-06T16:28:50.212Z,44.20
2022-09-06T16:31:17.994Z,43.92
2022-09-06T16:33:45.864Z,44.33
2022-09-06T16:36:15.039Z,44.58
2022-09-06T16:38:42.397Z,44.47
2022-09-06T16:41:14.628Z,44.76
2022-09-06T16:43:42.096Z,44.92
2022-09-06T16:46:09.546Z,44.88
2022-09-06T16:48:37.040Z,45.00
2022-09-06T16:51:11.542Z,45.14
2022-09-06T16:53:39.378Z,45.48
2022-09-06T16:56:06.711Z,45.29
2022-09-06T16:58:34.044Z,45.55
2022-09-06T17:01:01.376Z,45.66
2022-09-06T17:03:28.953Z,45.86
2022-09-06T17:05:56.229Z,46.30
2022-09-06T17:08:23.505Z,46.35
2022-09-06T17:10:50.798Z,46.54
2022-09-06T17:13:17.982Z,46.77
2022-09-06T17:16:11.089Z,47.32
2022-09-06T17:18:38.582Z,47.26
2022-09-06T17:21:06.081Z,47.54
2022-09-06T17:23:33.437Z,47.87
2022-09-06T17:26:00.909Z,47.90
2022-09-06T17:28:28.734Z,48.00
2022-09-06T17:31:00.188Z,48.45
2022-09-06T17:33:27.483Z,48.59
2022-09-06T17:35:54.656Z,48.70
2022-09-06T17:38:21.807Z,48.47
2022-09-06T17:40:57.005Z,48.41
2022-09-06T17:43:24.200Z,48.91
2022-09-06T17:45:51.400Z,48.71
2022-09-06T17:48:18.706Z,48.93
2022-09-06T17:50:45.897Z,48.72
2022-09-06T17:53:13.086Z,48.88
2022-09-06T17:55:41.387Z,48.85
2022-09-06T17:58:08.761Z,49.02
2022-09-06T18:00:40.289Z,48.80
2022-09-06T18:03:08.284Z,48.65
2022-09-06T18:05:42.896Z,48.81
2022-09-06T18:08:10.193Z,48.93
2022-09-06T18:10:37.988Z,48.95
2022-09-06T18:13:06.167Z,49.03
2022-09-06T18:15:38.427Z,49.19
2022-09-06T18:18:05.657Z,49.41
2022-09-06T18:20:32.914Z,49.69
2022-09-06T18:23:00.358Z,49.73
2022-09-06T18:25:28.575Z,49.97
2022-09-06T18:27:55.808Z,49.97
2022-09-06T18:30:23.037Z,49.81
2022-09-06T18:32:50.878Z,49.95
2022-09-06T18:35:19.841Z,50.42
2022-09-06T18:37:47.164Z,50.67
2022-09-06T18:40:14.543Z,50.93
2022-09-06T18:42:44.921Z,50.21
2022-09-06T18:45:13.528Z,50.81
2022-09-06T18:47:42.770Z,50.80
2022-09-06T18:50:10.110Z,50.96
2022-09-06T18:52:38.463Z,50.77
2022-09-06T18:55:06.206Z,50.48
2022-09-06T18:57:33.508Z,50.60
2022-09-06T19:00:01.031Z,50.74
2022-09-06T19:02:28.778Z,50.93
2022-09-06T19:04:59.158Z,51.46
2022-09-06T19:07:28.585Z,51.32
2022-09-06T19:09:57.779Z,51.22
2022-09-06T19:12:25.109Z,51.38
2022-09-06T19:14:52.570Z,51.56
2022-09-06T19:17:19.937Z,51.37
2022-09-06T19:19:47.230Z,51.85
2022-09-06T19:22:14.667Z,52.16
2022-09-06T19:24:44.381Z,51.83
2022-09-06T19:27:12.185Z,51.99
2022-09-06T19:29:39.501Z,52.12
2022-09-06T19:32:06.921Z,51.63
2022-09-06T19:34:34.280Z,51.96
2022-09-06T19:37:01.585Z,52.82
2022-09-06T19:39:34.787Z,53.15
2022-09-06T19:42:04.496Z,53.55
2022-09-06T19:44:32.611Z,54.58
2022-09-06T19:47:00.258Z,55.22
2022-09-06T19:49:27.735Z,55.61
2022-09-06T19:51:54.986Z,55.68
2022-09-06T19:54:22.228Z,55.52
2022-09-06T19:56:49.507Z,55.80
2022-09-06T19:59:17.747Z,56.15
2022-09-06T20:01:46.167Z,56.98
2022-09-06T20:04:14.822Z,57.63
2022-09-06T20:06:42.117Z,58.05
2022-09-06T20:09:09.968Z,58.65
2022-09-06T20:11:38.156Z,58.48
2022-09-06T20:14:05.951Z,58.66
2022-09-06T20:16:36.029Z,59.16
2022-09-06T20:19:05.782Z,59.86
2022-09-06T20:21:33.116Z,60.50
2022-09-06T20:24:00.455Z,60.55
2022-09-06T20:26:28.862Z,61.25
2022-09-06T20:29:00.068Z,61.28
2022-09-06T20:31:28.958Z,61.35
2022-09-06T20:33:58.237Z,61.14
2022-09-06T20:36:25.912Z,61.45
2022-09-06T20:38:53.326Z,62.14
2022-09-06T20:41:21.469Z,62.24
2022-09-06T20:43:53.071Z,62.03
2022-09-06T20:46:21.639Z,62.38
2022-09-06T20:48:49.189Z,61.97
2022-09-06T20:51:19.242Z,62.57
2022-09-06T20:53:48.110Z,62.91
2022-09-06T20:56:16.710Z,62.33
2022-09-06T20:58:47.943Z,62.67
2022-09-06T21:01:16.646Z,62.56
2022-09-06T21:03:44.022Z,63.01
2022-09-06T21:06:12.333Z,62.91
2022-09-06T21:08:42.825Z,63.39
2022-09-06T21:11:10.636Z,63.08
2022-09-06T21:13:38.072Z,62.95
2022-09-06T21:16:06.201Z,63.40
2022-09-06T21:18:34.460Z,63.55
2022-09-06T21:21:06.281Z,64.03
2022-09-06T21:23:38.265Z,64.23
2022-09-06T21:26:10.106Z,63.85
2022-09-06T21:28:38.592Z,63.51
2022-09-06T21:31:08.155Z,62.81
2022-09-06T21:33:36.441Z,61.93
2022-09-06T21:36:07.001Z,61.03
2022-09-06T21:38:35.365Z,61.11
2022-09-06T21:41:03.511Z,61.08
2022-09-06T21:43:31.089Z,61.12
2022-09-06T21:46:02.054Z,61.00
2022-09-06T21:48:29.460Z,60.93
2022-09-06T21:50:57.400Z,60.59
2022-09-06T21:53:26.621Z,60.58
2022-09-06T21:55:59.421Z,60.52
2022-09-06T21:58:26.721Z,60.02
2022-09-06T22:00:55.510Z,60.06
2022-09-06T22:03:23.000Z,59.67
2022-09-06T22:05:50.370Z,59.59
2022-09-06T22:08:17.729Z,59.67
2022-09-06T22:10:45.072Z,59.42
2022-09-06T22:13:12.332Z,59.29
2022-09-06T22:15:39.775Z,59.19
2022-09-06T22:18:07.423Z,58.82
2022-09-06T22:20:34.711Z,58.91
2022-09-06T22:23:03.212Z,58.94
2022-09-06T22:25:31.232Z,58.64
2022-09-06T22:27:58.661Z,58.51
2022-09-06T22:30:26.477Z,58.48
2022-09-06T22:32:53.876Z,58.42
2022-09-06T22:35:21.245Z,58.23
2022-09-06T22:37:48.501Z,58.20
2022-09-06T22:40:15.824Z,58.66
2022-09-06T22:42:43.435Z,59.35
2022-09-06T22:45:10.810Z,59.96
2022-09-06T22:47:38.099Z,59.97
2022-09-06T22:50:06.832Z,60.31
2022-09-06T22:52:34.101Z,59.76
2022-09-06T22:55:01.481Z,59.63
2022-09-06T22:57:28.724Z,59.40
2022-09-06T22:59:56.043Z,59.35
2022-09-06T23:02:23.298Z,59.52
2022-09-06T23:04:51.412Z,59.53
2022-09-06T23:07:18.721Z,59.69
2022-09-06T23:09:46.016Z,60.10
2022-09-06T23:12:13.320Z,60.09
2022-09-06T23:14:40.598Z,60.44
2022-09-06T23:17:07.877Z,60.01
2022-09-06T23:19:35.102Z,59.55
2022-09-06T23:22:02.652Z,59.53
2022-09-06T23:24:29.876Z,59.92
2022-09-06T23:26:57.109Z,60.43
2022-09-06T23:29:24.515Z,60.53
2022-09-06T23:31:51.947Z,60.73
2022-09-06T23:34:19.181Z,61.24
2022-09-06T23:36:46.435Z,60.91
2022-09-06T23:39:13.658Z,61.10
2022-09-06T23:41:40.903Z,61.46
2022-09-06T23:44:08.110Z,61.86
2022-09-06T23:46:35.468Z,61.73
2022-09-06T23:49:02.819Z,62.00
2022-09-06T23:51:30.072Z,62.06
2022-09-06T23:53:58.332Z,62.58
2022-09-06T23:56:25.594Z,62.55
2022-09-06T23:58:52.829Z,62.36
